createdAt,value
2017-08-18T00:00:10.825Z,0
2017-08-18T00:01:10.800Z,0
2017-08-18T00:02:11.047Z,0
2017-08-18T00:03:10.921Z,0
2017-08-18T00:04:10.890Z,0
2017-08-18T00:05:10.597Z,0
2017-08-18T00:06:10.616Z,0
2017-08-18T00:07:10.963Z,0
2017-08-18T00:08:10.677Z,0
2017-08-18T00:09:11.015Z,0
2017-08-18T00:10:10.731Z,0
2017-08-18T00:11:10.757Z,0
2017-08-18T00:12:10.456Z,0
2017-08-18T00:13:10.812Z,0
2017-08-18T00:14:11.246Z,0
2017-08-18T00:15:10.967Z,0
2017-08-18T00:16:11.444Z,0
2017-08-18T00:17:11.006Z,0
2017-08-18T00:18:11.458Z,0
2017-08-18T00:19:11.494Z,0
2017-08-18T00:20:11.494Z,0
2017-08-18T00:21:11.496Z,0
2017-08-18T00:22:10.742Z,0
2017-08-18T00:23:11.074Z,0
2017-08-18T00:24:11.100Z,0
2017-08-18T00:25:11.136Z,0
2017-08-18T00:26:10.520Z,0
2017-08-18T00:27:10.856Z,0
2017-08-18T00:28:11.516Z,0
2017-08-18T00:29:11.559Z,0
2017-08-18T00:30:11.571Z,0
2017-08-18T00:31:11.331Z,0
2017-08-18T00:32:11.305Z,0
2017-08-18T00:33:11.643Z,0
2017-08-18T00:34:11.671Z,0
2017-08-18T00:35:11.706Z,0
2017-08-18T00:36:11.086Z,0
2017-08-18T00:37:11.762Z,0
2017-08-18T00:38:11.459Z,0
2017-08-18T00:39:11.897Z,0
2017-08-18T00:40:11.189Z,0
2017-08-18T00:41:11.934Z,0
2017-08-18T00:42:11.451Z,0
2017-08-18T00:43:11.911Z,0
2017-08-18T00:44:11.931Z,0
2017-08-18T00:45:11.645Z,0
2017-08-18T00:46:11.770Z,0
2017-08-18T00:47:12.076Z,0
2017-08-18T00:48:11.726Z,0
2017-08-18T00:49:12.528Z,0
2017-08-18T00:50:12.082Z,0
2017-08-18T00:51:11.792Z,0
2017-08-18T00:52:11.826Z,0
2017-08-18T00:53:11.849Z,0
2017-08-18T00:54:11.244Z,0
2017-08-18T00:55:11.898Z,0
2017-08-18T00:56:12.259Z,0
2017-08-18T00:57:12.270Z,0
2017-08-18T00:58:12.295Z,0
2017-08-18T00:59:12.313Z,0
2017-08-18T01:00:12.341Z,0
2017-08-18T01:01:12.368Z,0
2017-08-18T01:02:12.393Z,0
2017-08-18T01:03:12.426Z,0
2017-08-18T01:04:12.453Z,0
2017-08-18T01:05:12.476Z,0
2017-08-18T01:06:12.177Z,0
2017-08-18T01:07:12.522Z,0
2017-08-18T01:08:12.549Z,0
2017-08-18T01:09:12.256Z,0
2017-08-18T01:10:12.609Z,0
2017-08-18T01:11:12.648Z,0
2017-08-18T01:12:12.910Z,0
2017-08-18T01:13:12.681Z,0
2017-08-18T01:14:12.740Z,0
2017-08-18T01:15:12.412Z,0
2017-08-18T01:16:12.754Z,0
2017-08-18T01:17:12.912Z,0
2017-08-18T01:18:12.595Z,0
2017-08-18T01:19:13.097Z,0
2017-08-18T01:20:12.858Z,0
2017-08-18T01:21:12.884Z,0
2017-08-18T01:22:13.028Z,0
2017-08-18T01:23:13.198Z,0
2017-08-18T01:24:12.973Z,0
2017-08-18T01:25:12.741Z,0
2017-08-18T01:26:13.026Z,0
2017-08-18T01:27:12.722Z,0
2017-08-18T01:28:13.053Z,0
2017-08-18T01:29:12.490Z,0
2017-08-18T01:30:13.194Z,0
2017-08-18T01:31:13.225Z,0
2017-08-18T01:32:12.928Z,0
2017-08-18T01:33:13.374Z,0
2017-08-18T01:34:13.376Z,0
2017-08-18T01:35:13.370Z,0
2017-08-18T01:36:13.062Z,0
2017-08-18T01:37:13.163Z,0
2017-08-18T01:38:13.442Z,0
2017-08-18T01:39:13.014Z,0
2017-08-18T01:40:13.368Z,0
2017-08-18T01:41:13.521Z,0
2017-08-18T01:42:13.620Z,0
2017-08-18T01:43:13.126Z,0
2017-08-18T01:44:13.287Z,0
2017-08-18T01:45:13.493Z,0
2017-08-18T01:46:12.878Z,0
2017-08-18T01:47:12.900Z,0
2017-08-18T01:48:13.249Z,0
2017-08-18T01:49:13.592Z,0
2017-08-18T01:50:13.506Z,0
2017-08-18T01:51:13.742Z,0
2017-08-18T01:52:13.521Z,0
2017-08-18T01:53:13.372Z,0
2017-08-18T01:54:13.814Z,0
2017-08-18T01:55:13.316Z,0
2017-08-18T01:56:13.878Z,0
2017-08-18T01:57:13.988Z,0
2017-08-18T01:58:13.634Z,0
2017-08-18T01:59:13.838Z,0
2017-08-18T02:00:13.631Z,0
2017-08-18T02:01:13.977Z,0
2017-08-18T02:02:13.922Z,0
2017-08-18T02:03:13.626Z,0
2017-08-18T02:04:13.782Z,0
2017-08-18T02:05:13.993Z,0
2017-08-18T02:06:13.875Z,0
2017-08-18T02:07:13.574Z,0
2017-08-18T02:08:14.056Z,0
2017-08-18T02:09:14.097Z,0
2017-08-18T02:10:13.799Z,0
2017-08-18T02:11:13.823Z,0
2017-08-18T02:12:13.845Z,0
2017-08-18T02:13:14.190Z,0
2017-08-18T02:14:14.220Z,0
2017-08-18T02:15:13.945Z,0
2017-08-18T02:16:13.949Z,0
2017-08-18T02:17:14.292Z,0
2017-08-18T02:18:14.000Z,0
2017-08-18T02:19:14.033Z,0
2017-08-18T02:20:13.733Z,0
2017-08-18T02:21:14.403Z,0
2017-08-18T02:22:14.412Z,0
2017-08-18T02:23:14.439Z,0
2017-08-18T02:24:14.138Z,0
2017-08-18T02:25:14.490Z,0
2017-08-18T02:26:14.530Z,0
2017-08-18T02:27:14.022Z,0
2017-08-18T02:28:13.934Z,0
2017-08-18T02:29:14.583Z,0
2017-08-18T02:30:14.319Z,0
2017-08-18T02:31:14.640Z,0
2017-08-18T02:32:14.465Z,0
2017-08-18T02:33:14.061Z,0
2017-08-18T02:34:14.079Z,0
2017-08-18T02:35:14.111Z,0
2017-08-18T02:36:14.450Z,0
2017-08-18T02:37:14.478Z,0
2017-08-18T02:38:14.815Z,0
2017-08-18T02:39:14.520Z,0
2017-08-18T02:40:14.235Z,0
2017-08-18T02:41:14.572Z,0
2017-08-18T02:42:14.926Z,0
2017-08-18T02:43:14.626Z,0
2017-08-18T02:44:14.656Z,0
2017-08-18T02:45:14.997Z,0
2017-08-18T02:46:14.729Z,0
2017-08-18T02:47:14.720Z,0
2017-08-18T02:48:15.068Z,0
2017-08-18T02:49:15.056Z,0
2017-08-18T02:50:15.199Z,0
2017-08-18T02:51:15.213Z,0
2017-08-18T02:52:14.850Z,0
2017-08-18T02:53:14.898Z,0
2017-08-18T02:54:15.218Z,0
2017-08-18T02:55:15.340Z,0
2017-08-18T02:56:14.628Z,0
2017-08-18T02:57:15.300Z,0
2017-08-18T02:58:15.310Z,0
2017-08-18T02:59:15.353Z,0
2017-08-18T03:00:15.490Z,0
2017-08-18T03:01:15.512Z,0
2017-08-18T03:02:15.500Z,0
2017-08-18T03:03:15.553Z,0
2017-08-18T03:04:15.354Z,0
2017-08-18T03:05:15.480Z,0
2017-08-18T03:06:15.510Z,0
2017-08-18T03:07:15.527Z,0
2017-08-18T03:08:15.593Z,0
2017-08-18T03:09:15.073Z,0
2017-08-18T03:10:15.611Z,0
2017-08-18T03:11:15.313Z,0
2017-08-18T03:12:15.814Z,0
2017-08-18T03:13:15.822Z,0
2017-08-18T03:14:15.709Z,0
2017-08-18T03:15:15.450Z,0
2017-08-18T03:16:15.761Z,0
2017-08-18T03:17:16.022Z,0
2017-08-18T03:18:15.614Z,0
2017-08-18T03:19:15.562Z,0
2017-08-18T03:20:15.535Z,0
2017-08-18T03:21:15.434Z,0
2017-08-18T03:22:15.964Z,0
2017-08-18T03:23:15.961Z,0
2017-08-18T03:24:15.970Z,0
2017-08-18T03:25:16.005Z,0
2017-08-18T03:26:16.252Z,0
2017-08-18T03:27:15.728Z,0
2017-08-18T03:28:15.927Z,0
2017-08-18T03:29:16.086Z,0
2017-08-18T03:30:16.105Z,0
2017-08-18T03:31:15.827Z,0
2017-08-18T03:32:16.144Z,0
2017-08-18T03:33:16.167Z,0
2017-08-18T03:34:15.890Z,0
2017-08-18T03:35:15.901Z,0
2017-08-18T03:36:15.919Z,0
2017-08-18T03:37:16.270Z,0
2017-08-18T03:38:16.293Z,0
2017-08-18T03:39:16.120Z,0
2017-08-18T03:40:16.139Z,0
2017-08-18T03:41:16.132Z,0
2017-08-18T03:42:16.390Z,4
2017-08-18T03:43:16.102Z,4
2017-08-18T03:44:16.439Z,4
2017-08-18T03:45:16.158Z,4
2017-08-18T03:46:16.169Z,0
2017-08-18T03:47:16.297Z,4
2017-08-18T03:48:16.123Z,4
2017-08-18T03:49:16.261Z,4
2017-08-18T03:50:16.678Z,8
2017-08-18T03:51:16.791Z,4
2017-08-18T03:52:16.492Z,8
2017-08-18T03:53:16.965Z,8
2017-08-18T03:54:16.454Z,12
2017-08-18T03:55:16.801Z,8
2017-08-18T03:56:16.803Z,12
2017-08-18T03:57:16.557Z,12
2017-08-18T03:58:16.907Z,12
2017-08-18T03:59:16.560Z,12
2017-08-18T04:00:16.875Z,16
2017-08-18T04:01:16.882Z,16
2017-08-18T04:02:16.250Z,16
2017-08-18T04:03:16.584Z,20
2017-08-18T04:04:16.599Z,20
2017-08-18T04:05:16.941Z,24
2017-08-18T04:06:16.972Z,24
2017-08-18T04:07:17.109Z,24
2017-08-18T04:08:16.816Z,28
2017-08-18T04:09:17.139Z,32
2017-08-18T04:10:17.140Z,32
2017-08-18T04:11:16.775Z,32
2017-08-18T04:12:17.306Z,40
2017-08-18T04:13:16.832Z,40
2017-08-18T04:14:17.166Z,40
2017-08-18T04:15:16.872Z,44
2017-08-18T04:16:16.897Z,44
2017-08-18T04:17:17.235Z,48
2017-08-18T04:18:17.268Z,52
2017-08-18T04:19:17.283Z,56
2017-08-18T04:20:16.993Z,56
2017-08-18T04:21:17.346Z,60
2017-08-18T04:22:17.043Z,56
2017-08-18T04:23:17.393Z,60
2017-08-18T04:24:17.404Z,64
2017-08-18T04:25:17.285Z,68
2017-08-18T04:26:17.581Z,72
2017-08-18T04:27:17.266Z,76
2017-08-18T04:28:17.506Z,80
2017-08-18T04:29:16.975Z,84
2017-08-18T04:30:17.299Z,84
2017-08-18T04:31:17.278Z,88
2017-08-18T04:32:17.293Z,92
2017-08-18T04:33:17.622Z,92
2017-08-18T04:34:17.644Z,96
2017-08-18T04:35:17.351Z,92
2017-08-18T04:36:17.380Z,96
2017-08-18T04:37:17.724Z,108
2017-08-18T04:38:17.422Z,108
2017-08-18T04:39:17.771Z,112
2017-08-18T04:40:17.478Z,112
2017-08-18T04:41:17.502Z,116
2017-08-18T04:42:17.522Z,112
2017-08-18T04:43:17.231Z,116
2017-08-18T04:44:17.583Z,112
2017-08-18T04:45:17.921Z,112
2017-08-18T04:46:17.616Z,112
2017-08-18T04:47:18.108Z,116
2017-08-18T04:48:18.111Z,124
2017-08-18T04:49:18.118Z,128
2017-08-18T04:50:17.475Z,136
2017-08-18T04:51:17.921Z,136
2017-08-18T04:52:17.565Z,136
2017-08-18T04:53:18.229Z,140
2017-08-18T04:54:18.338Z,140
2017-08-18T04:55:18.244Z,144
2017-08-18T04:56:18.268Z,144
2017-08-18T04:57:18.286Z,144
2017-08-18T04:58:18.313Z,144
2017-08-18T04:59:18.310Z,148
2017-08-18T05:00:18.091Z,144
2017-08-18T05:01:18.015Z,148
2017-08-18T05:02:18.097Z,148
2017-08-18T05:03:18.017Z,152
2017-08-18T05:04:18.367Z,152
2017-08-18T05:05:18.064Z,156
2017-08-18T05:06:18.096Z,160
2017-08-18T05:07:17.804Z,160
2017-08-18T05:08:18.324Z,160
2017-08-18T05:09:18.167Z,160
2017-08-18T05:10:18.192Z,160
2017-08-18T05:11:18.230Z,160
2017-08-18T05:12:18.554Z,160
2017-08-18T05:13:18.585Z,164
2017-08-18T05:14:18.610Z,168
2017-08-18T05:15:18.303Z,176
2017-08-18T05:16:18.674Z,180
2017-08-18T05:17:18.686Z,180
2017-08-18T05:18:18.707Z,188
2017-08-18T05:19:18.727Z,192
2017-08-18T05:20:18.434Z,196
2017-08-18T05:21:18.779Z,200
2017-08-18T05:22:18.479Z,200
2017-08-18T05:23:18.822Z,200
2017-08-18T05:24:18.843Z,204
2017-08-18T05:25:18.547Z,208
2017-08-18T05:26:19.001Z,216
2017-08-18T05:27:18.999Z,220
2017-08-18T05:28:19.037Z,228
2017-08-18T05:29:19.070Z,236
2017-08-18T05:30:18.860Z,240
2017-08-18T05:31:18.857Z,244
2017-08-18T05:32:19.023Z,248
2017-08-18T05:33:18.737Z,256
2017-08-18T05:34:19.088Z,264
2017-08-18T05:35:18.782Z,288
2017-08-18T05:36:18.816Z,320
2017-08-18T05:37:18.832Z,368
2017-08-18T05:38:18.877Z,432
2017-08-18T05:39:19.199Z,508
2017-08-18T05:40:19.220Z,544
2017-08-18T05:41:19.091Z,568
2017-08-18T05:42:18.951Z,600
2017-08-18T05:43:19.596Z,644
2017-08-18T05:44:19.091Z,672
2017-08-18T05:45:19.349Z,652
2017-08-18T05:46:19.372Z,596
2017-08-18T05:47:19.391Z,564
2017-08-18T05:48:19.124Z,564
2017-08-18T05:49:19.110Z,616
2017-08-18T05:50:19.141Z,700
2017-08-18T05:51:19.167Z,772
2017-08-18T05:52:19.189Z,796
2017-08-18T05:53:18.899Z,776
2017-08-18T05:54:19.552Z,728
2017-08-18T05:55:19.583Z,740
2017-08-18T05:56:19.600Z,776
2017-08-18T05:57:19.630Z,788
2017-08-18T05:58:19.342Z,768
2017-08-18T05:59:19.685Z,776
2017-08-18T06:00:20.006Z,768
2017-08-18T06:01:19.724Z,796
2017-08-18T06:02:19.743Z,860
2017-08-18T06:03:19.572Z,960
2017-08-18T06:04:19.476Z,1016
2017-08-18T06:05:19.871Z,1028
2017-08-18T06:06:19.838Z,1016
2017-08-18T06:07:19.868Z,980
2017-08-18T06:08:19.259Z,948
2017-08-18T06:09:19.597Z,968
2017-08-18T06:10:19.953Z,1000
2017-08-18T06:11:19.647Z,1044
2017-08-18T06:12:19.979Z,1060
2017-08-18T06:13:19.691Z,1024
2017-08-18T06:14:20.032Z,936
2017-08-18T06:15:19.743Z,888
2017-08-18T06:16:20.130Z,892
2017-08-18T06:17:20.115Z,844
2017-08-18T06:18:20.136Z,764
2017-08-18T06:19:19.830Z,680
2017-08-18T06:20:20.196Z,576
2017-08-18T06:21:20.202Z,516
2017-08-18T06:22:19.918Z,452
2017-08-18T06:23:19.610Z,444
2017-08-18T06:24:20.300Z,448
2017-08-18T06:25:20.326Z,468
2017-08-18T06:26:20.140Z,492
2017-08-18T06:27:20.031Z,504
2017-08-18T06:28:20.050Z,480
2017-08-18T06:29:20.395Z,452
2017-08-18T06:30:20.540Z,460
2017-08-18T06:31:20.449Z,424
2017-08-18T06:32:20.154Z,368
2017-08-18T06:33:20.179Z,340
2017-08-18T06:34:20.521Z,328
2017-08-18T06:35:20.230Z,328
2017-08-18T06:36:20.557Z,328
2017-08-18T06:37:20.618Z,328
2017-08-18T06:38:20.292Z,332
2017-08-18T06:39:20.635Z,340
2017-08-18T06:40:20.862Z,348
2017-08-18T06:41:20.708Z,352
2017-08-18T06:42:20.398Z,360
2017-08-18T06:43:20.828Z,364
2017-08-18T06:44:20.435Z,360
2017-08-18T06:45:20.469Z,352
2017-08-18T06:46:20.796Z,336
2017-08-18T06:47:20.626Z,320
2017-08-18T06:48:20.854Z,320
2017-08-18T06:49:20.244Z,316
2017-08-18T06:50:20.904Z,320
2017-08-18T06:51:20.944Z,324
2017-08-18T06:52:20.949Z,320
2017-08-18T06:53:20.977Z,324
2017-08-18T06:54:20.737Z,320
2017-08-18T06:55:20.407Z,324
2017-08-18T06:56:21.097Z,324
2017-08-18T06:57:21.106Z,320
2017-08-18T06:58:21.090Z,320
2017-08-18T06:59:21.216Z,328
2017-08-18T07:00:21.215Z,332
2017-08-18T07:01:21.241Z,328
2017-08-18T07:02:21.202Z,328
2017-08-18T07:03:21.090Z,316
2017-08-18T07:04:21.250Z,312
2017-08-18T07:05:20.952Z,308
2017-08-18T07:06:21.299Z,308
2017-08-18T07:07:21.441Z,308
2017-08-18T07:08:20.704Z,312
2017-08-18T07:09:21.130Z,312
2017-08-18T07:10:21.389Z,316
2017-08-18T07:11:21.417Z,316
2017-08-18T07:12:21.244Z,324
2017-08-18T07:13:20.920Z,320
2017-08-18T07:14:21.166Z,324
2017-08-18T07:15:21.256Z,324
2017-08-18T07:16:21.218Z,328
2017-08-18T07:17:21.557Z,328
2017-08-18T07:18:21.596Z,328
2017-08-18T07:19:21.633Z,328
2017-08-18T07:20:21.677Z,332
2017-08-18T07:21:21.141Z,336
2017-08-18T07:22:21.052Z,332
2017-08-18T07:23:21.517Z,352
2017-08-18T07:24:21.735Z,364
2017-08-18T07:25:21.438Z,364
2017-08-18T07:26:21.570Z,364
2017-08-18T07:27:21.182Z,364
2017-08-18T07:28:21.625Z,356
2017-08-18T07:29:21.845Z,364
2017-08-18T07:30:21.762Z,368
2017-08-18T07:31:22.031Z,380
2017-08-18T07:32:21.934Z,392
2017-08-18T07:33:21.310Z,408
2017-08-18T07:34:21.670Z,412
2017-08-18T07:35:21.693Z,420
2017-08-18T07:36:22.030Z,436
2017-08-18T07:37:22.056Z,440
2017-08-18T07:38:22.088Z,436
2017-08-18T07:39:21.791Z,428
2017-08-18T07:40:22.210Z,420
2017-08-18T07:41:21.518Z,412
2017-08-18T07:42:22.178Z,404
2017-08-18T07:43:22.207Z,392
2017-08-18T07:44:21.919Z,384
2017-08-18T07:45:22.064Z,372
2017-08-18T07:46:21.990Z,364
2017-08-18T07:47:22.186Z,356
2017-08-18T07:48:22.018Z,356
2017-08-18T07:49:22.036Z,356
2017-08-18T07:50:22.403Z,356
2017-08-18T07:51:22.085Z,360
2017-08-18T07:52:22.283Z,364
2017-08-18T07:53:22.135Z,368
2017-08-18T07:54:22.164Z,372
2017-08-18T07:55:22.186Z,380
2017-08-18T07:56:22.217Z,388
2017-08-18T07:57:21.929Z,396
2017-08-18T07:58:22.603Z,416
2017-08-18T07:59:21.964Z,464
2017-08-18T08:00:22.313Z,548
2017-08-18T08:01:22.660Z,684
2017-08-18T08:02:22.686Z,840
2017-08-18T08:03:22.827Z,1008
2017-08-18T08:04:22.101Z,1216
2017-08-18T08:05:22.767Z,1252
2017-08-18T08:06:22.480Z,1152
2017-08-18T08:07:22.816Z,1036
2017-08-18T08:08:22.837Z,980
2017-08-18T08:09:22.862Z,976
2017-08-18T08:10:22.576Z,1028
2017-08-18T08:11:22.914Z,1092
2017-08-18T08:12:23.067Z,1128
2017-08-18T08:13:22.962Z,1176
2017-08-18T08:14:23.115Z,1224
2017-08-18T08:15:23.026Z,1320
2017-08-18T08:16:22.725Z,1408
2017-08-18T08:17:23.076Z,1496
2017-08-18T08:18:23.099Z,1580
2017-08-18T08:19:22.924Z,1652
2017-08-18T08:20:22.826Z,1712
2017-08-18T08:21:23.172Z,1760
2017-08-18T08:22:23.319Z,1792
2017-08-18T08:23:22.907Z,1788
2017-08-18T08:24:23.248Z,1744
2017-08-18T08:25:23.288Z,1716
2017-08-18T08:26:23.322Z,1704
2017-08-18T08:27:23.337Z,1692
2017-08-18T08:28:23.360Z,1652
2017-08-18T08:29:22.437Z,1588
2017-08-18T08:30:23.412Z,1580
2017-08-18T08:31:23.126Z,1652
2017-08-18T08:32:23.526Z,1764
2017-08-18T08:33:23.488Z,1924
2017-08-18T08:34:23.582Z,2064
2017-08-18T08:35:23.662Z,2188
2017-08-18T08:36:22.947Z,2292
2017-08-18T08:37:23.599Z,2348
2017-08-18T08:38:23.623Z,2328
2017-08-18T08:39:23.643Z,2236
2017-08-18T08:40:23.672Z,2212
2017-08-18T08:41:23.699Z,2228
2017-08-18T08:42:23.405Z,2256
2017-08-18T08:43:23.438Z,2276
2017-08-18T08:44:23.458Z,2188
2017-08-18T08:45:23.487Z,2108
2017-08-18T08:46:23.530Z,2028
2017-08-18T08:47:23.750Z,1976
2017-08-18T08:48:23.572Z,1944
2017-08-18T08:49:23.960Z,2080
2017-08-18T08:50:24.053Z,2196
2017-08-18T08:51:23.653Z,2224
2017-08-18T08:52:23.995Z,2220
2017-08-18T08:53:23.705Z,2220
2017-08-18T08:54:23.743Z,2136
2017-08-18T08:55:23.439Z,1980
2017-08-18T08:56:23.472Z,1972
2017-08-18T08:57:24.142Z,1884
2017-08-18T08:58:24.151Z,1792
2017-08-18T08:59:24.188Z,1684
2017-08-18T09:00:24.208Z,1588
2017-08-18T09:01:23.932Z,1592
2017-08-18T09:02:23.968Z,1604
2017-08-18T09:03:23.983Z,1460
2017-08-18T09:04:24.328Z,1432
2017-08-18T09:05:24.034Z,1468
2017-08-18T09:06:24.081Z,1456
2017-08-18T09:07:24.083Z,1472
2017-08-18T09:08:24.466Z,1448
2017-08-18T09:09:24.347Z,1360
2017-08-18T09:10:24.487Z,1268
2017-08-18T09:11:24.524Z,1284
2017-08-18T09:12:24.548Z,1392
2017-08-18T09:13:23.943Z,1620
2017-08-18T09:14:24.339Z,1868
2017-08-18T09:15:24.622Z,2000
2017-08-18T09:16:24.330Z,2088
2017-08-18T09:17:24.256Z,2172
2017-08-18T09:18:24.067Z,2016
2017-08-18T09:19:24.911Z,2028
2017-08-18T09:20:24.573Z,2036
2017-08-18T09:21:24.474Z,1640
2017-08-18T09:22:24.498Z,1512
2017-08-18T09:23:24.535Z,1736
2017-08-18T09:24:23.920Z,1952
2017-08-18T09:25:24.581Z,2280
2017-08-18T09:26:24.940Z,2520
2017-08-18T09:27:24.790Z,2932
2017-08-18T09:28:24.392Z,2920
2017-08-18T09:29:26.861Z,2512
2017-08-18T09:30:24.734Z,2232
2017-08-18T09:31:24.809Z,2072
2017-08-18T09:32:25.105Z,1712
2017-08-18T09:33:24.711Z,1480
2017-08-18T09:34:25.158Z,1524
2017-08-18T09:35:25.317Z,1892
2017-08-18T09:36:25.217Z,1984
2017-08-18T09:37:24.925Z,1736
2017-08-18T09:38:25.276Z,1440
2017-08-18T09:39:25.296Z,1664
2017-08-18T09:40:25.330Z,2008
2017-08-18T09:41:25.367Z,1700
2017-08-18T09:42:25.067Z,1668
2017-08-18T09:43:25.406Z,2100
2017-08-18T09:44:24.483Z,2192
2017-08-18T09:45:25.464Z,1960
2017-08-18T09:46:25.179Z,1968
2017-08-18T09:47:24.891Z,2144
2017-08-18T09:48:25.355Z,2260
2017-08-18T09:49:24.949Z,2156
2017-08-18T09:50:24.980Z,1988
2017-08-18T09:51:25.641Z,2196
2017-08-18T09:52:25.791Z,2604
2017-08-18T09:53:25.705Z,3244
2017-08-18T09:54:25.406Z,3588
2017-08-18T09:55:25.757Z,3648
2017-08-18T09:56:25.149Z,3616
2017-08-18T09:57:25.488Z,3460
2017-08-18T09:58:25.544Z,2992
2017-08-18T09:59:25.552Z,2228
2017-08-18T10:00:25.689Z,1708
2017-08-18T10:01:26.097Z,1736
2017-08-18T10:02:25.756Z,1736
2017-08-18T10:03:25.991Z,1872
2017-08-18T10:04:25.691Z,1992
2017-08-18T10:05:25.729Z,2172
2017-08-18T10:06:26.190Z,2264
2017-08-18T10:07:26.102Z,2280
2017-08-18T10:08:26.145Z,2356
2017-08-18T10:09:26.155Z,2420
2017-08-18T10:10:26.191Z,2652
2017-08-18T10:11:26.402Z,2880
2017-08-18T10:12:26.269Z,2820
2017-08-18T10:13:25.981Z,2664
2017-08-18T10:14:26.304Z,2784
2017-08-18T10:15:26.333Z,2820
2017-08-18T10:16:25.732Z,2788
2017-08-18T10:17:26.411Z,2860
2017-08-18T10:18:25.782Z,2624
2017-08-18T10:19:26.122Z,2580
2017-08-18T10:20:26.477Z,3068
2017-08-18T10:21:26.195Z,3036
2017-08-18T10:22:26.223Z,2988
2017-08-18T10:23:26.245Z,3116
2017-08-18T10:24:26.394Z,2840
2017-08-18T10:25:26.767Z,2696
2017-08-18T10:26:26.664Z,2716
2017-08-18T10:27:26.376Z,2772
2017-08-18T10:28:26.400Z,2528
2017-08-18T10:29:26.101Z,2172
2017-08-18T10:30:26.463Z,2184
2017-08-18T10:31:26.481Z,2500
2017-08-18T10:32:26.195Z,2568
2017-08-18T10:33:26.537Z,2512
2017-08-18T10:34:26.910Z,2488
2017-08-18T10:35:26.918Z,2504
2017-08-18T10:36:26.944Z,2508
2017-08-18T10:37:26.979Z,2456
2017-08-18T10:38:27.012Z,2432
2017-08-18T10:39:26.712Z,2468
2017-08-18T10:40:27.063Z,2608
2017-08-18T10:41:27.098Z,2740
2017-08-18T10:42:27.117Z,2832
2017-08-18T10:43:27.152Z,3044
2017-08-18T10:44:26.539Z,3380
2017-08-18T10:45:27.204Z,3504
2017-08-18T10:46:27.417Z,3652
2017-08-18T10:47:27.406Z,3420
2017-08-18T10:48:26.670Z,3160
2017-08-18T10:49:27.331Z,3416
2017-08-18T10:50:27.059Z,3708
2017-08-18T10:51:27.073Z,3496
2017-08-18T10:52:27.432Z,3040
2017-08-18T10:53:27.464Z,2896
2017-08-18T10:54:27.164Z,2956
2017-08-18T10:55:27.522Z,3104
2017-08-18T10:56:27.415Z,3116
2017-08-18T10:57:27.252Z,2928
2017-08-18T10:58:26.970Z,2908
2017-08-18T10:59:27.630Z,3120
2017-08-18T11:00:27.735Z,3344
2017-08-18T11:01:27.502Z,3464
2017-08-18T11:02:27.406Z,3500
2017-08-18T11:03:27.752Z,3492
2017-08-18T11:04:27.782Z,3540
2017-08-18T11:05:27.497Z,3356
2017-08-18T11:06:27.527Z,3064
2017-08-18T11:07:27.550Z,2876
2017-08-18T11:08:27.687Z,2876
2017-08-18T11:09:28.051Z,2964
2017-08-18T11:10:27.865Z,3308
2017-08-18T11:11:27.680Z,3844
2017-08-18T11:12:28.015Z,3788
2017-08-18T11:13:28.053Z,3528
2017-08-18T11:14:27.895Z,3440
2017-08-18T11:15:27.471Z,3600
2017-08-18T11:16:27.966Z,3804
2017-08-18T11:17:28.200Z,3756
2017-08-18T11:18:27.899Z,3384
2017-08-18T11:19:28.380Z,3064
2017-08-18T11:20:28.273Z,2576
2017-08-18T11:21:27.976Z,2200
2017-08-18T11:22:28.325Z,3112
2017-08-18T11:23:28.413Z,2504
2017-08-18T11:24:28.494Z,1848
2017-08-18T11:25:28.418Z,1368
2017-08-18T11:26:28.134Z,1684
2017-08-18T11:27:28.488Z,1172
2017-08-18T11:28:28.181Z,712
2017-08-18T11:29:28.215Z,600
2017-08-18T11:30:28.691Z,748
2017-08-18T11:31:28.686Z,1744
2017-08-18T11:32:28.624Z,2384
2017-08-18T11:33:28.653Z,2488
2017-08-18T11:34:28.689Z,2764
2017-08-18T11:35:28.722Z,3052
2017-08-18T11:36:28.759Z,3364
2017-08-18T11:37:28.780Z,3608
2017-08-18T11:38:28.496Z,3516
2017-08-18T11:39:28.842Z,3452
2017-08-18T11:40:29.114Z,3488
2017-08-18T11:41:28.262Z,3148
2017-08-18T11:42:28.937Z,2912
2017-08-18T11:43:28.967Z,2884
2017-08-18T11:44:28.679Z,3208
2017-08-18T11:45:29.040Z,2692
2017-08-18T11:46:28.730Z,2208
2017-08-18T11:47:28.791Z,2200
2017-08-18T11:48:29.136Z,1944
2017-08-18T11:49:29.145Z,1892
2017-08-18T11:50:29.169Z,2228
2017-08-18T11:51:28.273Z,2484
2017-08-18T11:52:28.297Z,2560
2017-08-18T11:53:29.083Z,2488
2017-08-18T11:54:29.096Z,2356
2017-08-18T11:55:29.014Z,2588
2017-08-18T11:56:29.043Z,2908
2017-08-18T11:57:29.520Z,3184
2017-08-18T11:58:29.120Z,3400
2017-08-18T11:59:29.134Z,3596
2017-08-18T12:00:29.479Z,3832
2017-08-18T12:01:29.513Z,3688
2017-08-18T12:02:29.541Z,3956
2017-08-18T12:03:28.936Z,3476
2017-08-18T12:04:29.607Z,3000
2017-08-18T12:05:29.768Z,2848
2017-08-18T12:06:29.662Z,2656
2017-08-18T12:07:29.383Z,2016
2017-08-18T12:08:29.411Z,1792
2017-08-18T12:09:29.751Z,1928
2017-08-18T12:10:29.777Z,2112
2017-08-18T12:11:29.722Z,1932
2017-08-18T12:12:29.519Z,1740
2017-08-18T12:13:29.881Z,2036
2017-08-18T12:14:29.913Z,2124
2017-08-18T12:15:30.061Z,2128
2017-08-18T12:16:29.344Z,2616
2017-08-18T12:17:30.008Z,2772
2017-08-18T12:18:30.036Z,2224
2017-08-18T12:19:29.886Z,1892
2017-08-18T12:20:29.922Z,1772
2017-08-18T12:21:30.125Z,1696
2017-08-18T12:22:29.831Z,1572
2017-08-18T12:23:30.312Z,1684
2017-08-18T12:24:30.024Z,1800
2017-08-18T12:25:29.607Z,2032
2017-08-18T12:26:30.082Z,2308
2017-08-18T12:27:30.305Z,2456
2017-08-18T12:28:30.327Z,2876
2017-08-18T12:29:30.380Z,3624
2017-08-18T12:30:30.408Z,3344
2017-08-18T12:31:30.426Z,2700
2017-08-18T12:32:30.138Z,2948
2017-08-18T12:33:30.491Z,3356
2017-08-18T12:34:30.523Z,3316
2017-08-18T12:35:30.244Z,3148
2017-08-18T12:36:30.585Z,3048
2017-08-18T12:37:30.617Z,3148
2017-08-18T12:38:30.642Z,3180
2017-08-18T12:39:30.819Z,2912
2017-08-18T12:40:30.461Z,2896
2017-08-18T12:41:30.772Z,2852
2017-08-18T12:42:30.777Z,3028
2017-08-18T12:43:30.481Z,3368
2017-08-18T12:44:30.834Z,3296
2017-08-18T12:45:30.987Z,3308
2017-08-18T12:46:30.892Z,2948
2017-08-18T12:47:30.924Z,2496
2017-08-18T12:48:30.962Z,2492
2017-08-18T12:49:30.660Z,2708
2017-08-18T12:50:30.705Z,3036
2017-08-18T12:51:30.733Z,3252
2017-08-18T12:52:30.440Z,3620
2017-08-18T12:53:30.803Z,3760
2017-08-18T12:54:31.144Z,3992
2017-08-18T12:55:30.975Z,4228
2017-08-18T12:56:30.591Z,4036
2017-08-18T12:57:31.443Z,3592
2017-08-18T12:58:31.079Z,3516
2017-08-18T12:59:31.406Z,3452
2017-08-18T13:00:31.415Z,3632
2017-08-18T13:01:31.547Z,3480
2017-08-18T13:02:31.067Z,3760
2017-08-18T13:03:31.309Z,3696
2017-08-18T13:04:31.132Z,3076
2017-08-18T13:05:31.550Z,3556
2017-08-18T13:06:31.658Z,3792
2017-08-18T13:07:31.315Z,3868
2017-08-18T13:08:31.577Z,3996
2017-08-18T13:09:31.654Z,4204
2017-08-18T13:10:31.631Z,4340
2017-08-18T13:11:31.670Z,3608
2017-08-18T13:12:31.720Z,3588
2017-08-18T13:13:31.521Z,3480
2017-08-18T13:14:31.129Z,3352
2017-08-18T13:15:31.795Z,2616
2017-08-18T13:16:31.824Z,2660
2017-08-18T13:17:31.534Z,2796
2017-08-18T13:18:31.562Z,2732
2017-08-18T13:19:31.597Z,3168
2017-08-18T13:20:31.563Z,3432
2017-08-18T13:21:31.664Z,3528
2017-08-18T13:22:31.815Z,3508
2017-08-18T13:23:31.725Z,3516
2017-08-18T13:24:32.076Z,3532
2017-08-18T13:25:31.781Z,3392
2017-08-18T13:26:31.824Z,3512
2017-08-18T13:27:31.844Z,3800
2017-08-18T13:28:31.880Z,4500
2017-08-18T13:29:32.232Z,4912
2017-08-18T13:30:32.269Z,4472
2017-08-18T13:31:32.299Z,4392
2017-08-18T13:32:32.011Z,4492
2017-08-18T13:33:32.348Z,3736
2017-08-18T13:34:32.383Z,3544
2017-08-18T13:35:32.422Z,3128
2017-08-18T13:36:32.133Z,2932
2017-08-18T13:37:31.971Z,3148
2017-08-18T13:38:31.875Z,3072
2017-08-18T13:39:32.571Z,3496
2017-08-18T13:40:32.571Z,2492
2017-08-18T13:41:32.289Z,2328
2017-08-18T13:42:32.638Z,2616
2017-08-18T13:43:32.676Z,2928
2017-08-18T13:44:32.399Z,3424
2017-08-18T13:45:32.737Z,3912
2017-08-18T13:46:32.978Z,3836
2017-08-18T13:47:32.478Z,4500
2017-08-18T13:48:32.834Z,4568
2017-08-18T13:49:32.549Z,4860
2017-08-18T13:50:32.894Z,5388
2017-08-18T13:51:32.937Z,5068